Time;durP1;ratioP1;P1;durP2;ratioP2;P2;SDS_P1;SDS_P2;PMS_P1;PMS_P2;Temp;Humidity;BMP_temperature;BMP_pressure;BME280_temperature;BME280_humidity;BME280_pressure;Samples;Min_cycle;Max_cycle;Signal;HPM_P1;HPM_P2
2022/01/07 00:01:05;;;;;;;1.60;1.50;;;4.50;99.90;;;;;;5019854;28;20119;-75
2022/01/07 00:03:31;;;;;;;1.85;1.75;;;4.50;99.90;;;;;;5018099;28;20045;-75
2022/01/07 00:05:59;;;;;;;6.93;2.83;;;4.50;99.90;;;;;;5018597;28;20085;-75
2022/01/07 00:08:25;;;;;;;2.10;1.92;;;4.50;99.90;;;;;;5018974;28;20500;-75
2022/01/07 00:10:50;;;;;;;1.98;1.88;;;4.50;99.90;;;;;;5019771;28;20107;-76
2022/01/07 00:13:16;;;;;;;3.30;2.35;;;4.50;99.90;;;;;;5019035;28;20057;-75
2022/01/07 00:15:42;;;;;;;2.30;2.13;;;4.40;99.90;;;;;;5018641;28;20050;-75
2022/01/07 00:18:07;;;;;;;3.63;2.78;;;4.40;99.90;;;;;;5018532;28;20046;-75
2022/01/07 00:20:34;;;;;;;5.00;2.40;;;4.40;99.90;;;;;;5019789;28;20037;-75
2022/01/07 00:23:01;;;;;;;2.53;2.07;;;4.50;99.90;;;;;;5001622;28;20096;-75
2022/01/07 00:25:26;;;;;;;2.45;2.25;;;4.40;99.90;;;;;;5019215;28;20499;-75
2022/01/07 00:27:52;;;;;;;4.63;2.13;;;4.40;99.90;;;;;;5017901;28;20037;-75
2022/01/07 00:30:19;;;;;;;10.03;2.83;;;4.40;99.90;;;;;;5018020;28;20046;-76
2022/01/07 00:32:46;;;;;;;6.80;2.30;;;4.40;99.90;;;;;;5002214;28;20128;-75
2022/01/07 00:35:14;;;;;;;3.70;1.98;;;4.40;99.90;;;;;;5018164;28;20377;-75
2022/01/07 00:37:39;;;;;;;5.03;2.75;;;4.40;99.90;;;;;;5017093;28;20537;-75
2022/01/07 00:40:07;;;;;;;2.83;2.63;;;4.40;99.90;;;;;;5018517;28;20041;-75
2022/01/07 00:42:33;;;;;;;7.43;3.00;;;4.40;99.90;;;;;;5018053;28;20042;-75
2022/01/07 00:44:58;;;;;;;4.70;3.53;;;4.40;99.90;;;;;;5018202;28;20047;-75
2022/01/07 00:47:24;;;;;;;4.75;2.92;;;4.40;99.90;;;;;;5019647;28;20038;-75
2022/01/07 00:49:50;;;;;;;2.53;2.33;;;4.40;99.90;;;;;;5019790;28;20052;-75
2022/01/07 00:52:15;;;;;;;5.93;1.98;;;4.40;99.90;;;;;;5018136;28;20049;-75
2022/01/07 00:54:41;;;;;;;6.20;4.28;;;4.40;99.90;;;;;;5018305;28;20492;-75
2022/01/07 00:57:07;;;;;;;4.35;2.60;;;4.30;99.90;;;;;;5019798;28;20174;-75
2022/01/07 00:59:33;;;;;;;5.37;3.57;;;4.40;99.90;;;;;;5019743;28;20458;-75
2022/01/07 01:01:58;;;;;;;2.55;2.35;;;4.30;99.90;;;;;;5020028;28;20041;-75
2022/01/07 01:04:24;;;;;;;2.72;2.42;;;4.30;99.90;;;;;;5022838;28;20403;-75
2022/01/07 01:06:49;;;;;;;2.58;2.38;;;4.30;99.90;;;;;;5022478;28;20124;-75
2022/01/07 01:09:15;;;;;;;3.47;3.28;;;4.40;99.90;;;;;;5022821;28;20544;-75
2022/01/07 01:11:40;;;;;;;3.83;3.63;;;4.30;99.90;;;;;;5022782;28;20199;-75
2022/01/07 01:14:06;;;;;;;4.47;4.07;;;4.40;99.90;;;;;;5023175;28;20051;-75
2022/01/07 01:16:33;;;;;;;6.33;3.60;;;4.30;99.90;;;;;;5023044;28;20041;-75
2022/01/07 01:18:59;;;;;;;4.07;2.75;;;4.30;99.90;;;;;;5023331;28;20200;-75
2022/01/07 01:21:24;;;;;;;3.92;3.47;;;4.30;99.90;;;;;;5021724;28;20638;-75
2022/01/07 01:23:50;;;;;;;3.33;3.03;;;4.30;99.90;;;;;;5022379;28;20485;-75
2022/01/07 01:26:20;;;;;;;10.27;3.80;;;4.30;99.90;;;;;;5022169;28;20103;-75
2022/01/07 01:28:47;;;;;;;11.53;5.03;;;4.30;99.90;;;;;;5022992;28;20045;-75
2022/01/07 01:31:15;;;;;;;9.30;4.80;;;4.30;99.90;;;;;;5021719;28;20308;-75
2022/01/07 01:33:41;;;;;;;13.23;3.20;;;4.30;99.90;;;;;;5022511;28;20158;-75
2022/01/07 01:36:09;;;;;;;6.82;4.90;;;4.30;99.90;;;;;;5022296;28;20558;-75
2022/01/07 01:38:35;;;;;;;7.40;4.67;;;4.40;99.90;;;;;;5020420;28;20045;-75
2022/01/07 01:41:01;;;;;;;4.20;3.90;;;4.30;99.90;;;;;;5021730;28;20045;-75
2022/01/07 01:43:26;;;;;;;2.60;2.03;;;4.30;99.90;;;;;;5022191;28;20044;-75
2022/01/07 01:45:52;;;;;;;4.60;4.20;;;4.30;99.90;;;;;;5022830;28;20076;-75
2022/01/07 01:48:19;;;;;;;4.50;3.97;;;4.30;99.90;;;;;;5020905;28;20050;-76
2022/01/07 01:50:44;;;;;;;6.77;4.53;;;4.30;99.90;;;;;;5022564;28;20052;-75
2022/01/07 01:53:10;;;;;;;4.67;4.27;;;4.30;99.90;;;;;;5021558;28;20080;-75
2022/01/07 01:55:36;;;;;;;5.53;4.10;;;4.30;99.90;;;;;;5020756;28;21069;-75
2022/01/07 01:58:02;;;;;;;4.88;4.30;;;4.20;99.90;;;;;;5022294;28;20576;-75
2022/01/07 02:00:28;;;;;;;5.85;4.82;;;4.30;99.90;;;;;;5022310;28;20073;-75
2022/01/07 02:02:54;;;;;;;4.13;3.63;;;4.20;99.90;;;;;;5034234;22;20511;-75
2022/01/07 02:05:19;;;;;;;4.43;3.70;;;4.20;99.90;;;;;;5057382;28;20063;-76
2022/01/07 02:07:45;;;;;;;4.67;4.27;;;4.20;99.90;;;;;;5042850;28;20049;-75
2022/01/07 02:10:13;;;;;;;6.67;4.90;;;4.20;99.90;;;;;;5043257;28;20437;-75
2022/01/07 02:12:40;;;;;;;4.83;4.27;;;4.20;99.90;;;;;;5041263;28;20049;-75
2022/01/07 02:15:06;;;;;;;4.43;3.50;;;4.20;99.90;;;;;;5041674;28;20090;-75
2022/01/07 02:17:32;;;;;;;3.73;3.43;;;4.10;99.90;;;;;;5042904;28;20544;-75
2022/01/07 02:19:57;;;;;;;6.23;2.90;;;4.20;99.90;;;;;;5057214;28;20044;-75
2022/01/07 02:22:24;;;;;;;8.73;4.07;;;4.10;99.90;;;;;;5061536;28;20094;-75
2022/01/07 02:24:51;;;;;;;3.83;2.50;;;4.20;99.90;;;;;;5063281;28;20044;-75
2022/01/07 02:27:18;;;;;;;4.40;3.80;;;4.10;99.90;;;;;;5062516;28;20032;-76
2022/01/07 02:29:48;;;;;;;3.63;3.33;;;4.10;99.90;;;;;;5061839;28;20567;-75
2022/01/07 02:32:14;;;;;;;5.70;3.23;;;4.10;99.90;;;;;;5063440;28;20052;-75
2022/01/07 02:34:40;;;;;;;4.30;3.33;;;4.10;99.90;;;;;;5062292;28;20044;-75
2022/01/07 02:37:06;;;;;;;2.93;2.73;;;4.10;99.90;;;;;;5062158;28;20639;-75
2022/01/07 02:39:31;;;;;;;3.50;3.30;;;4.10;99.90;;;;;;5061378;28;20287;-75
2022/01/07 02:41:57;;;;;;;6.47;3.63;;;4.10;99.90;;;;;;5061157;28;20044;-75
2022/01/07 02:44:22;;;;;;;6.83;3.97;;;4.00;99.90;;;;;;5062375;28;20094;-75
2022/01/07 02:46:48;;;;;;;16.70;3.77;;;4.00;99.90;;;;;;5062660;28;20055;-76
2022/01/07 02:49:16;;;;;;;2.70;2.50;;;4.00;99.90;;;;;;5061463;28;20737;-75
2022/01/07 02:51:42;;;;;;;11.30;3.47;;;4.10;99.90;;;;;;5061948;28;20406;-75
2022/01/07 02:54:08;;;;;;;5.13;2.87;;;4.10;99.90;;;;;;5061602;28;20119;-75
2022/01/07 02:56:35;;;;;;;6.97;3.83;;;4.10;99.90;;;;;;5061962;28;20085;-75
2022/01/07 02:59:02;;;;;;;5.28;4.78;;;4.10;99.90;;;;;;5061965;28;20376;-75
2022/01/07 03:01:28;;;;;;;5.00;4.30;;;4.10;99.90;;;;;;5044118;28;20486;-75
2022/01/07 03:03:54;;;;;;;5.50;4.60;;;4.10;99.90;;;;;;5060546;28;20052;-75
2022/01/07 03:06:21;;;;;;;5.27;3.93;;;4.10;99.90;;;;;;5062042;28;20082;-75
2022/01/07 03:08:48;;;;;;;3.57;3.30;;;4.10;99.90;;;;;;5061510;28;20066;-75
2022/01/07 03:11:14;;;;;;;3.77;3.47;;;4.10;99.90;;;;;;5061526;28;20376;-75
2022/01/07 03:13:39;;;;;;;4.10;2.80;;;4.10;99.90;;;;;;5061554;28;20048;-75
2022/01/07 03:16:05;;;;;;;4.00;3.60;;;4.10;99.90;;;;;;5061924;28;20052;-75
2022/01/07 03:18:30;;;;;;;12.77;4.50;;;4.10;99.90;;;;;;5061430;28;20040;-75
2022/01/07 03:20:58;;;;;;;9.57;5.53;;;4.20;99.90;;;;;;5077694;28;20371;-75
2022/01/07 03:23:24;;;;;;;4.15;3.65;;;4.10;99.90;;;;;;5059472;28;20059;-75
2022/01/07 03:25:50;;;;;;;6.57;5.70;;;4.20;99.90;;;;;;5061209;28;20048;-75
2022/01/07 03:28:16;;;;;;;3.90;3.50;;;4.20;99.90;;;;;;5060734;28;20151;-75
2022/01/07 03:30:42;;;;;;;4.30;4.00;;;4.10;99.90;;;;;;5060353;28;20131;-75
2022/01/07 03:33:08;;;;;;;4.60;4.20;;;4.20;99.90;;;;;;5061553;28;20490;-75
2022/01/07 03:35:34;;;;;;;4.93;4.53;;;4.20;99.90;;;;;;5060173;28;20084;-75
2022/01/07 03:37:59;;;;;;;3.97;3.67;;;4.20;99.90;;;;;;5061158;28;20045;-75
2022/01/07 03:40:25;;;;;;;4.30;4.03;;;4.20;99.90;;;;;;5061212;28;20041;-75
2022/01/07 03:42:51;;;;;;;10.17;4.80;;;4.20;99.90;;;;;;5060429;28;20048;-75
2022/01/07 03:45:18;;;;;;;4.17;3.70;;;4.20;99.90;;;;;;5061119;28;20059;-76
2022/01/07 03:47:44;;;;;;;5.27;3.23;;;4.20;99.90;;;;;;5061411;28;20096;-75
2022/01/07 03:50:13;;;;;;;3.27;3.07;;;4.20;99.90;;;;;;5061697;28;20047;-75
2022/01/07 03:52:39;;;;;;;12.57;4.17;;;4.20;99.90;;;;;;5060279;28;20061;-75
2022/01/07 03:55:07;;;;;;;4.90;4.60;;;4.30;99.90;;;;;;5060295;28;20123;-75
2022/01/07 03:57:32;;;;;;;4.57;4.00;;;4.20;99.90;;;;;;5061099;28;20577;-75
2022/01/07 03:59:58;;;;;;;7.13;4.47;;;4.20;99.90;;;;;;5060724;28;20111;-75
2022/01/07 04:02:23;;;;;;;4.53;4.13;;;4.30;99.90;;;;;;5060022;28;20052;-75
2022/01/07 04:04:49;;;;;;;5.67;5.13;;;4.30;99.90;;;;;;5059735;28;20060;-75
2022/01/07 04:07:15;;;;;;;8.10;4.17;;;4.20;99.90;;;;;;5059035;28;20087;-75
2022/01/07 04:09:41;;;;;;;3.37;3.07;;;4.30;99.90;;;;;;5061054;28;20036;-75
2022/01/07 04:12:07;;;;;;;7.60;5.37;;;4.30;99.90;;;;;;5060987;28;20270;-75
2022/01/07 04:14:32;;;;;;;5.93;5.33;;;4.30;99.90;;;;;;5059312;28;20036;-75
2022/01/07 04:16:59;;;;;;;5.70;5.07;;;4.30;99.90;;;;;;5061030;28;20094;-76
2022/01/07 04:19:25;;;;;;;5.97;4.17;;;4.30;99.90;;;;;;5060276;28;20045;-75
2022/01/07 04:21:50;;;;;;;11.27;5.07;;;4.30;99.90;;;;;;5059367;28;20101;-75
2022/01/07 04:24:16;;;;;;;4.30;4.00;;;4.30;99.90;;;;;;5061538;28;20098;-75
2022/01/07 04:26:42;;;;;;;5.47;5.07;;;4.30;99.90;;;;;;5061442;28;20044;-75
2022/01/07 04:29:08;;;;;;;5.40;3.88;;;4.30;99.90;;;;;;5060827;28;20037;-75
2022/01/07 04:31:34;;;;;;;4.85;4.50;;;4.40;99.90;;;;;;5060343;28;20066;-75
2022/01/07 04:34:00;;;;;;;13.77;6.28;;;4.30;99.90;;;;;;5060402;28;20028;-75
2022/01/07 04:36:25;;;;;;;6.68;6.03;;;4.30;99.90;;;;;;5061429;28;20093;-76
2022/01/07 04:38:51;;;;;;;11.77;6.07;;;4.30;99.90;;;;;;5079526;28;20114;-75
2022/01/07 04:41:17;;;;;;;7.53;5.97;;;4.30;99.90;;;;;;5064961;28;20044;-76
2022/01/07 04:43:42;;;;;;;9.67;5.57;;;4.40;99.90;;;;;;5063733;28;20040;-75
2022/01/07 04:46:08;;;;;;;8.13;6.10;;;4.40;99.90;;;;;;5064484;28;20044;-75
2022/01/07 04:48:33;;;;;;;4.47;4.07;;;4.40;99.90;;;;;;5063338;28;20074;-75
2022/01/07 04:50:59;;;;;;;4.57;4.27;;;4.40;99.90;;;;;;5064888;28;20654;-75
2022/01/07 04:53:26;;;;;;;4.57;4.17;;;4.40;99.90;;;;;;5063494;28;20052;-75
2022/01/07 04:55:53;;;;;;;6.27;5.10;;;4.40;99.90;;;;;;5064885;28;20079;-75
2022/01/07 04:58:19;;;;;;;5.43;5.03;;;4.40;99.90;;;;;;5062884;28;20064;-76
2022/01/07 05:00:45;;;;;;;5.35;4.80;;;4.40;99.90;;;;;;5065368;28;20049;-75
2022/01/07 05:03:11;;;;;;;4.90;4.57;;;4.40;99.90;;;;;;5064380;28;20103;-75
2022/01/07 05:05:37;;;;;;;5.75;5.35;;;4.40;99.90;;;;;;5064117;28;20057;-76
2022/01/07 05:08:03;;;;;;;5.67;5.17;;;4.40;99.90;;;;;;5063716;28;20040;-75
2022/01/07 05:10:29;;;;;;;8.45;4.55;;;4.40;99.90;;;;;;5064334;28;20041;-75
2022/01/07 05:12:55;;;;;;;5.53;4.67;;;4.40;99.90;;;;;;5062357;28;20043;-76
2022/01/07 05:15:22;;;;;;;4.33;4.03;;;4.40;99.90;;;;;;5063886;28;20115;-76
2022/01/07 05:17:49;;;;;;;6.27;5.73;;;4.40;99.90;;;;;;5062319;28;20040;-76
2022/01/07 05:20:16;;;;;;;5.45;4.95;;;4.40;99.90;;;;;;5064764;28;20040;-75
2022/01/07 05:22:42;;;;;;;10.60;7.37;;;4.50;99.90;;;;;;5063478;28;20076;-75
2022/01/07 05:25:09;;;;;;;5.33;4.50;;;4.50;99.90;;;;;;5062708;28;20044;-75
2022/01/07 05:27:35;;;;;;;5.85;5.28;;;4.50;99.90;;;;;;5062909;28;20048;-76
2022/01/07 05:30:01;;;;;;;24.60;6.73;;;4.50;99.90;;;;;;5062662;28;20109;-75
2022/01/07 05:32:26;;;;;;;8.43;4.97;;;4.50;99.90;;;;;;5062025;28;20083;-75
2022/01/07 05:34:52;;;;;;;6.55;5.95;;;4.50;99.90;;;;;;5063940;28;20431;-76
2022/01/07 05:37:17;;;;;;;8.35;6.78;;;4.50;99.90;;;;;;5061634;28;20094;-76
2022/01/07 05:39:43;;;;;;;4.70;3.85;;;4.50;99.90;;;;;;5064396;28;20483;-76
2022/01/07 05:42:09;;;;;;;4.93;4.53;;;4.50;99.90;;;;;;5064069;28;20083;-75
2022/01/07 05:44:35;;;;;;;9.13;6.40;;;4.50;99.90;;;;;;5063262;28;20040;-75
2022/01/07 05:47:01;;;;;;;7.27;5.80;;;4.50;99.90;;;;;;5062006;28;21207;-76
2022/01/07 05:49:26;;;;;;;8.00;7.18;;;4.50;99.90;;;;;;5063111;28;20040;-76
2022/01/07 05:51:52;;;;;;;8.98;6.70;;;4.50;99.90;;;;;;5062615;28;20498;-76
2022/01/07 05:54:17;;;;;;;6.32;5.72;;;4.50;99.90;;;;;;5063085;28;20039;-76
2022/01/07 05:56:43;;;;;;;7.20;5.63;;;4.60;99.90;;;;;;5063875;28;20048;-76
2022/01/07 05:59:08;;;;;;;8.93;5.47;;;4.60;99.90;;;;;;5079166;28;20191;-75
2022/01/07 06:01:34;;;;;;;6.60;6.10;;;4.60;99.90;;;;;;5063551;28;20372;-76
2022/01/07 06:03:59;;;;;;;5.47;5.03;;;4.60;99.90;;;;;;5063039;28;20204;-76
2022/01/07 06:06:25;;;;;;;11.77;7.25;;;4.60;99.90;;;;;;5062330;28;20486;-76
2022/01/07 06:08:51;;;;;;;6.35;5.40;;;4.60;99.90;;;;;;5045344;28;20498;-76
2022/01/07 06:11:17;;;;;;;11.83;5.93;;;4.60;99.90;;;;;;5061947;28;20048;-76
2022/01/07 06:13:43;;;;;;;6.75;5.20;;;4.60;99.90;;;;;;5062509;28;20492;-75
2022/01/07 06:16:08;;;;;;;6.90;5.50;;;4.70;99.90;;;;;;5063667;28;20044;-75
2022/01/07 06:18:35;;;;;;;7.83;5.23;;;4.70;99.90;;;;;;5061476;28;20506;-76
2022/01/07 06:21:01;;;;;;;7.27;4.93;;;4.70;99.90;;;;;;5063246;28;20044;-76
2022/01/07 06:23:26;;;;;;;5.15;4.85;;;4.70;99.90;;;;;;5061747;28;20047;-76
2022/01/07 06:25:52;;;;;;;7.20;5.97;;;4.70;99.90;;;;;;5062822;28;20040;-76
2022/01/07 06:28:18;;;;;;;7.63;6.87;;;4.70;99.90;;;;;;5062567;28;20120;-76
2022/01/07 06:30:44;;;;;;;9.30;5.38;;;4.70;99.90;;;;;;5061644;28;20415;-76
2022/01/07 06:33:10;;;;;;;7.07;6.00;;;4.70;99.90;;;;;;5063037;28;20032;-76
2022/01/07 06:35:35;;;;;;;6.67;6.17;;;4.70;99.90;;;;;;5062660;28;20110;-76
2022/01/07 06:38:01;;;;;;;8.45;6.20;;;4.80;99.90;;;;;;5053260;28;20029;-75
2022/01/07 06:40:27;;;;;;;9.88;6.30;;;4.80;99.90;;;;;;5062073;28;20040;-76
2022/01/07 06:42:52;;;;;;;12.38;5.28;;;4.70;99.90;;;;;;5062627;28;20049;-76
2022/01/07 06:45:18;;;;;;;7.78;6.47;;;4.80;99.90;;;;;;5062217;28;20041;-76
2022/01/07 06:47:43;;;;;;;8.83;6.37;;;4.80;99.90;;;;;;5062117;28;20048;-76
2022/01/07 06:50:09;;;;;;;7.18;6.43;;;4.80;99.90;;;;;;5060802;28;20204;-76
2022/01/07 06:52:35;;;;;;;22.73;7.57;;;4.80;99.90;;;;;;5077296;28;20083;-76
2022/01/07 06:55:01;;;;;;;7.28;5.65;;;4.80;99.90;;;;;;5062002;28;20084;-76
2022/01/07 06:57:27;;;;;;;5.18;4.40;;;4.80;99.90;;;;;;5077749;28;20048;-76
2022/01/07 06:59:52;;;;;;;7.30;6.70;;;4.80;99.90;;;;;;5076947;28;20119;-76
2022/01/07 07:02:18;;;;;;;11.70;7.07;;;4.80;99.90;;;;;;5061269;28;20371;-76
2022/01/07 07:04:46;;;;;;;7.03;5.65;;;4.70;99.90;;;;;;5061443;28;20147;-75
2022/01/07 07:07:13;;;;;;;5.55;4.97;;;4.70;99.90;;;;;;5043188;28;20441;-75
2022/01/07 07:09:39;;;;;;;10.70;7.10;;;4.70;99.90;;;;;;5058599;28;20070;-75
2022/01/07 07:12:05;;;;;;;7.63;6.90;;;4.70;99.90;;;;;;5062121;28;20055;-76
2022/01/07 07:14:30;;;;;;;6.00;5.55;;;4.70;99.90;;;;;;5060445;28;20120;-76
2022/01/07 07:16:56;;;;;;;5.38;4.95;;;4.70;99.90;;;;;;5062047;28;20090;-76
2022/01/07 07:19:22;;;;;;;10.82;6.63;;;4.70;99.90;;;;;;5054696;28;20470;-81
2022/01/07 07:21:51;;;;;;;7.10;6.40;;;4.70;99.90;;;;;;5059997;28;20039;-81
2022/01/07 07:24:16;;;;;;;7.27;6.50;;;4.70;99.90;;;;;;5061135;28;20032;-83
2022/01/07 07:26:42;;;;;;;6.10;5.60;;;4.70;99.90;;;;;;5061087;28;20387;-82
2022/01/07 07:29:07;;;;;;;6.63;5.93;;;4.70;99.90;;;;;;5061061;28;20036;-78
2022/01/07 07:31:38;;;;;;;7.20;6.47;;;4.70;99.90;;;;;;5060221;28;20052;-77
2022/01/07 07:34:21;;;;;;;6.30;5.45;;;4.70;99.90;;;;;;5060953;28;20044;-78
2022/01/07 07:36:47;;;;;;;15.25;8.23;;;4.60;99.90;;;;;;5059609;28;20739;-78
2022/01/07 07:39:14;;;;;;;10.07;5.10;;;4.60;99.90;;;;;;5057294;28;20032;-77
2022/01/07 07:41:41;;;;;;;7.13;6.53;;;4.60;99.90;;;;;;5059244;28;20816;-78
2022/01/07 07:44:08;;;;;;;14.60;4.65;;;4.60;99.90;;;;;;5060728;28;20478;-78
2022/01/07 07:46:35;;;;;;;18.38;6.93;;;4.60;99.90;;;;;;5060704;28;20040;-77
2022/01/07 07:49:02;;;;;;;7.60;6.07;;;4.60;99.90;;;;;;5059996;28;20044;-78
2022/01/07 07:51:28;;;;;;;9.63;7.90;;;4.60;99.90;;;;;;5059161;28;20554;-78
2022/01/07 07:53:54;;;;;;;8.90;6.55;;;4.60;99.90;;;;;;5059874;28;20118;-78
2022/01/07 07:56:20;;;;;;;10.95;6.68;;;4.60;99.90;;;;;;5060968;28;20502;-78
2022/01/07 07:58:47;;;;;;;7.63;6.85;;;4.60;99.90;;;;;;5077274;28;20044;-78
2022/01/07 08:01:13;;;;;;;7.25;6.50;;;4.60;99.90;;;;;;5061388;28;20055;-78
2022/01/07 08:03:39;;;;;;;7.85;7.20;;;4.60;99.90;;;;;;5053418;28;20045;-80
2022/01/07 08:06:05;;;;;;;8.20;6.15;;;4.60;99.90;;;;;;5056613;28;20192;-78
2022/01/07 08:08:33;;;;;;;6.35;5.85;;;4.60;99.90;;;;;;5060389;28;20062;-79
2022/01/07 08:11:03;;;;;;;9.03;6.80;;;4.60;99.90;;;;;;5058661;28;20044;-81
2022/01/07 08:15:58;;;;;;;7.65;5.35;;;4.50;99.90;;;;;;5060760;28;20040;-80
2022/01/07 08:16:19;;;;;;;6.33;5.83;;;4.60;99.90;;;;;;5059537;28;20506;-80
2022/01/07 08:18:48;;;;;;;8.02;7.35;;;4.60;99.90;;;;;;5061871;28;20107;-81
2022/01/07 08:21:14;;;;;;;14.65;9.95;;;4.60;99.90;;;;;;5048364;28;20442;-81
2022/01/07 08:23:42;;;;;;;11.68;7.40;;;4.60;99.90;;;;;;5059661;28;20109;-80
2022/01/07 08:26:16;;;;;;;10.10;6.95;;;4.60;99.90;;;;;;5043184;28;20113;-80
2022/01/07 08:37:21;;;;;;;8.25;7.15;;;4.60;99.90;;;;;;5058183;28;20049;-78
2022/01/07 08:39:46;;;;;;;18.83;7.50;;;4.60;99.90;;;;;;5060643;28;20045;-78
2022/01/07 08:42:12;;;;;;;11.80;7.47;;;4.60;99.90;;;;;;5059978;28;20041;-78
2022/01/07 08:44:37;;;;;;;17.55;8.57;;;4.60;99.90;;;;;;5060308;28;20037;-78
2022/01/07 08:47:03;;;;;;;9.18;8.02;;;4.60;99.90;;;;;;5058679;28;20036;-77
2022/01/07 08:49:29;;;;;;;16.08;8.93;;;4.60;99.90;;;;;;5042473;28;20114;-77
2022/01/07 08:51:54;;;;;;;14.82;6.70;;;4.60;99.90;;;;;;5048881;28;20682;-77
2022/01/07 08:54:20;;;;;;;7.33;6.73;;;4.60;99.90;;;;;;5040151;28;20488;-77
2022/01/07 08:56:45;;;;;;;8.48;7.68;;;4.60;99.90;;;;;;5039941;28;20060;-78
2022/01/07 08:59:11;;;;;;;10.82;7.78;;;4.60;99.90;;;;;;5039481;28;20045;-77
2022/01/07 09:01:37;;;;;;;7.55;5.00;;;4.60;99.90;;;;;;5038732;28;20128;-77
2022/01/07 09:04:03;;;;;;;14.55;5.95;;;4.60;99.90;;;;;;5054060;28;20099;-80
2022/01/07 09:06:28;;;;;;;6.90;6.13;;;4.60;99.90;;;;;;5051384;28;20131;-82
2022/01/07 09:08:57;;;;;;;7.57;6.55;;;4.60;99.90;;;;;;5048122;28;20037;-80
2022/01/07 09:11:23;;;;;;;7.53;6.82;;;4.70;99.90;;;;;;5046367;28;20044;-77
2022/01/07 09:13:51;;;;;;;15.93;8.48;;;4.70;99.90;;;;;;5050428;28;20510;-78
2022/01/07 09:16:17;;;;;;;18.30;6.68;;;4.70;99.90;;;;;;5046543;28;20543;-77
2022/01/07 09:18:43;;;;;;;11.77;6.83;;;4.70;99.90;;;;;;5049319;28;20124;-77
2022/01/07 09:21:08;;;;;;;10.48;7.93;;;4.70;99.90;;;;;;5047360;28;20081;-78
2022/01/07 09:23:34;;;;;;;12.43;8.00;;;4.70;99.90;;;;;;5056326;28;20036;-77
2022/01/07 09:26:00;;;;;;;7.50;6.75;;;4.70;99.90;;;;;;5051603;28;20051;-78
2022/01/07 09:28:26;;;;;;;16.65;6.35;;;4.80;99.90;;;;;;5052981;28;20048;-79
2022/01/07 09:30:51;;;;;;;21.88;7.60;;;4.80;99.90;;;;;;5055623;28;20091;-78
2022/01/07 09:33:17;;;;;;;13.57;6.25;;;4.80;99.90;;;;;;5055872;28;20052;-77
2022/01/07 09:35:44;;;;;;;11.60;6.53;;;4.80;99.90;;;;;;5052361;28;20071;-77
2022/01/07 09:38:10;;;;;;;20.10;6.25;;;4.80;99.90;;;;;;5052439;28;20135;-78
2022/01/07 09:40:35;;;;;;;8.40;6.05;;;4.90;99.90;;;;;;5050845;28;20115;-78
2022/01/07 09:43:04;;;;;;;6.43;5.78;;;4.80;99.90;;;;;;5050090;28;20064;-77
2022/01/07 09:45:32;;;;;;;7.65;3.85;;;4.80;99.90;;;;;;5034854;28;20041;-77
2022/01/07 09:47:58;;;;;;;7.10;5.15;;;4.80;99.90;;;;;;5053841;28;20044;-78
2022/01/07 09:50:26;;;;;;;3.33;3.13;;;4.80;99.90;;;;;;5051467;28;20064;-77
2022/01/07 09:52:52;;;;;;;11.00;3.75;;;4.90;99.90;;;;;;5054732;28;20055;-77
2022/01/07 09:55:18;;;;;;;19.33;4.43;;;4.80;99.90;;;;;;5051349;28;20080;-78
2022/01/07 09:57:44;;;;;;;5.50;4.82;;;4.80;99.90;;;;;;5053299;28;20103;-76
2022/01/07 10:00:11;;;;;;;8.15;6.18;;;4.90;99.90;;;;;;5052859;28;20598;-76
2022/01/07 10:02:36;;;;;;;5.18;4.68;;;4.90;99.90;;;;;;5049962;28;20491;-78
2022/01/07 10:05:18;;;;;;;16.42;5.22;;;4.90;99.90;;;;;;5050500;28;20059;-78
2022/01/07 10:07:44;;;;;;;4.50;4.10;;;4.90;99.90;;;;;;5052230;28;20044;-78
2022/01/07 10:10:17;;;;;;;4.13;3.83;;;4.90;99.90;;;;;;5052205;28;20049;-78
2022/01/07 10:13:06;;;;;;;8.15;4.82;;;4.90;99.90;;;;;;5052668;28;20125;-78
2022/01/07 10:15:37;;;;;;;8.07;3.75;;;5.00;99.90;;;;;;5067454;28;20367;-78
2022/01/07 10:18:05;;;;;;;10.32;3.17;;;5.00;99.90;;;;;;5067713;28;20039;-78
2022/01/07 10:20:34;;;;;;;4.28;2.70;;;5.00;99.90;;;;;;5051899;28;20144;-78
2022/01/07 10:23:05;;;;;;;7.72;4.65;;;5.00;99.90;;;;;;5051030;28;20036;-77
2022/01/07 10:25:36;;;;;;;4.72;3.10;;;5.00;99.90;;;;;;5056680;28;20127;-77
2022/01/07 10:28:16;;;;;;;10.35;2.28;;;5.00;99.90;;;;;;5058654;28;20033;-81
2022/01/07 10:30:47;;;;;;;2.00;1.90;;;5.00;99.90;;;;;;5051792;28;20081;-79
2022/01/07 10:33:24;;;;;;;2.58;2.38;;;5.00;99.90;;;;;;5046940;28;20166;-78
2022/01/07 10:35:55;;;;;;;7.97;3.22;;;5.00;99.90;;;;;;5043730;28;20040;-79
2022/01/07 10:38:26;;;;;;;4.88;3.22;;;5.00;99.90;;;;;;5029359;28;20152;-78
2022/01/07 10:40:54;;;;;;;9.40;3.35;;;5.00;99.90;;;;;;5049788;28;20033;-76
2022/01/07 10:43:25;;;;;;;2.40;2.10;;;5.10;99.90;;;;;;5049568;28;20141;-78
2022/01/07 10:46:12;;;;;;;7.05;3.72;;;5.10;99.90;;;;;;5052034;28;20033;-79
2022/01/07 10:48:47;;;;;;;6.65;2.47;;;5.10;99.90;;;;;;5053776;28;20041;-78
2022/01/07 10:51:15;;;;;;;3.85;2.85;;;5.10;99.90;;;;;;5055491;28;20036;-79
2022/01/07 10:53:46;;;;;;;3.83;2.70;;;5.10;99.90;;;;;;5049496;28;20036;-77
2022/01/07 10:56:14;;;;;;;6.22;2.30;;;5.10;99.90;;;;;;5062709;28;20049;-76
2022/01/07 10:58:43;;;;;;;8.85;4.03;;;5.20;99.90;;;;;;5061884;28;20037;-77
2022/01/07 11:01:25;;;;;;;3.35;2.45;;;5.20;99.90;;;;;;5061994;28;20068;-75
2022/01/07 11:03:56;;;;;;;4.70;3.75;;;5.20;99.90;;;;;;5059214;28;20642;-76
2022/01/07 11:06:23;;;;;;;5.47;3.42;;;5.20;99.90;;;;;;5060397;28;20044;-76
2022/01/07 11:08:50;;;;;;;6.35;3.08;;;5.20;99.90;;;;;;5044045;28;20049;-75
2022/01/07 11:11:18;;;;;;;3.78;2.78;;;5.30;99.90;;;;;;5060672;28;20052;-75
2022/01/07 11:13:43;;;;;;;8.48;2.72;;;5.30;99.90;;;;;;5062255;28;20052;-75
2022/01/07 11:16:09;;;;;;;20.75;3.45;;;5.30;99.90;;;;;;5061320;28;20422;-76
2022/01/07 11:18:40;;;;;;;5.78;3.65;;;5.40;99.90;;;;;;5055336;28;20115;-76
2022/01/07 11:21:07;;;;;;;3.45;3.15;;;5.40;99.90;;;;;;5053342;28;20049;-77
2022/01/07 11:23:39;;;;;;;7.65;3.58;;;5.40;99.90;;;;;;5050628;28;20052;-77
2022/01/07 11:26:09;;;;;;;3.13;2.85;;;5.40;99.90;;;;;;5061208;28;20213;-77
2022/01/07 11:28:36;;;;;;;2.45;2.35;;;5.50;99.90;;;;;;5060441;28;20044;-78
2022/01/07 11:31:14;;;;;;;3.17;2.35;;;5.50;99.90;;;;;;5054617;28;20041;-77
2022/01/07 11:33:40;;;;;;;2.00;0.70;;;5.50;99.90;;;;;;5055576;28;20048;-78
2022/01/07 11:36:37;;;;;;;0.77;0.77;;;5.40;99.90;;;;;;5059683;28;20555;-77
2022/01/07 11:39:04;;;;;;;0.90;0.85;;;5.40;99.90;;;;;;5059473;28;20037;-77
2022/01/07 11:41:55;;;;;;;7.13;1.55;;;5.40;99.90;;;;;;5060548;28;20044;-79
2022/01/07 11:44:30;;;;;;;1.30;0.63;;;5.30;99.90;;;;;;5042249;28;20603;-77
2022/01/07 11:47:23;;;;;;;5.53;0.80;;;5.30;99.90;;;;;;5056615;28;20074;-78
2022/01/07 11:53:40;;;;;;;0.77;0.77;;;5.30;99.90;;;;;;5021140;28;20049;-80
2022/01/07 11:56:14;;;;;;;0.47;0.47;;;5.30;99.90;;;;;;5038003;28;20319;-81
2022/01/07 11:58:41;;;;;;;0.93;0.93;;;5.30;99.90;;;;;;5037180;28;20087;-82
2022/01/07 12:01:21;;;;;;;4.35;0.73;;;5.30;99.90;;;;;;5049059;28;20052;-79
2022/01/07 12:03:49;;;;;;;2.45;0.77;;;5.30;99.90;;;;;;5050766;28;20072;-78
2022/01/07 12:06:17;;;;;;;2.08;1.38;;;5.30;99.90;;;;;;5049092;28;20048;-78
2022/01/07 12:09:11;;;;;;;0.40;0.40;;;5.30;99.90;;;;;;5066940;28;21311;-78
2022/01/07 12:11:42;;;;;;;0.77;0.77;;;5.30;99.90;;;;;;5051856;28;20093;-78
2022/01/07 12:14:11;;;;;;;2.95;0.63;;;5.30;99.90;;;;;;5049478;28;20048;-77
2022/01/07 12:16:38;;;;;;;4.60;1.70;;;5.30;99.90;;;;;;5050077;28;20044;-82
2022/01/07 12:19:23;;;;;;;1.38;1.25;;;5.30;99.90;;;;;;5053051;28;20146;-79
2022/01/07 12:22:02;;;;;;;3.40;1.60;;;5.30;99.90;;;;;;5051496;28;20087;-85
2022/01/07 12:24:30;;;;;;;1.98;1.63;;;5.30;99.90;;;;;;5055357;28;20043;-78
2022/01/07 12:27:02;;;;;;;4.47;0.65;;;5.30;99.90;;;;;;5050761;28;20077;-77
2022/01/07 12:29:31;;;;;;;7.97;1.65;;;5.30;99.90;;;;;;5054110;28;20394;-79
2022/01/07 12:31:57;;;;;;;0.20;0.20;;;5.30;99.90;;;;;;5053172;28;20499;-77
2022/01/07 12:34:27;;;;;;;3.40;1.73;;;5.30;99.90;;;;;;5050251;28;20083;-78
2022/01/07 12:36:59;;;;;;;0.70;0.70;;;5.30;99.90;;;;;;5046996;28;20029;-78
2022/01/07 12:39:27;;;;;;;0.63;0.63;;;5.40;99.90;;;;;;5048940;28;20095;-78
2022/01/07 12:41:54;;;;;;;0.60;0.60;;;5.30;99.90;;;;;;5049851;28;20476;-77
2022/01/07 12:44:21;;;;;;;2.83;1.05;;;5.30;99.90;;;;;;5048050;28;20202;-76
2022/01/07 12:46:55;;;;;;;0.38;0.38;;;5.40;99.90;;;;;;5048657;28;20039;-77
2022/01/07 12:49:38;;;;;;;1.77;1.67;;;5.40;99.90;;;;;;5047262;28;20507;-77
2022/01/07 12:52:05;;;;;;;0.50;0.50;;;5.40;99.90;;;;;;5046015;28;20048;-80
2022/01/07 12:54:31;;;;;;;0.98;0.82;;;5.40;99.90;;;;;;5050789;28;20044;-80
2022/01/07 12:56:57;;;;;;;0.93;0.68;;;5.40;99.90;;;;;;5047275;28;20044;-79
2022/01/07 12:59:25;;;;;;;4.05;2.13;;;5.40;99.90;;;;;;5051939;28;20132;-80
2022/01/07 13:01:52;;;;;;;4.32;1.25;;;5.40;99.90;;;;;;5051623;28;20033;-77
2022/01/07 13:04:21;;;;;;;0.40;0.40;;;5.40;99.90;;;;;;5051465;28;20501;-77
2022/01/07 13:06:56;;;;;;;0.40;0.40;;;5.40;99.90;;;;;;5050800;28;20057;-79
2022/01/07 13:09:24;;;;;;;3.03;1.45;;;5.40;99.90;;;;;;5052428;28;20068;-79